Time;durP1;ratioP1;P1;durP2;ratioP2;P2;SDS_P1;SDS_P2;PMS_P1;PMS_P2;Temp;Humidity;BMP_temperature;BMP_pressure;BME280_temperature;BME280_humidity;BME280_pressure;Samples;Min_cycle;Max_cycle;Signal;HPM_P1;HPM_P2
2021/10/05 00:01:44;;;;;;;7.90;7.10;;;;;;;12.31;100.00;99180.25;5120141;28;20645;-77
2021/10/05 00:04:11;;;;;;;6.78;6.07;;;;;;;12.20;100.00;99191.81;5118954;28;20195;-76
2021/10/05 00:06:38;;;;;;;7.20;6.50;;;;;;;12.07;100.00;99183.75;5118351;28;20184;-75
2021/10/05 00:09:05;;;;;;;6.97;6.28;;;;;;;12.07;100.00;99186.44;5116332;28;20199;-76
2021/10/05 00:11:32;;;;;;;6.78;6.03;;;;;;;12.08;100.00;99187.28;5119030;28;20188;-76
2021/10/05 00:14:00;;;;;;;7.10;6.40;;;;;;;12.14;100.00;99189.53;5118503;28;20660;-76
2021/10/05 00:16:27;;;;;;;7.72;6.75;;;;;;;12.17;100.00;99181.25;5118000;28;20270;-76
2021/10/05 00:18:53;;;;;;;7.30;6.30;;;;;;;12.26;100.00;99183.28;5123506;28;20205;-75
2021/10/05 00:21:21;;;;;;;7.65;6.85;;;;;;;12.18;100.00;99185.66;5119788;28;20274;-75
2021/10/05 00:23:47;;;;;;;7.78;6.55;;;;;;;12.16;100.00;99182.19;5118568;28;20181;-76
2021/10/05 00:26:14;;;;;;;7.07;6.38;;;;;;;12.23;100.00;99186.22;5110885;28;20183;-76
2021/10/05 00:28:41;;;;;;;7.47;5.85;;;;;;;12.44;100.00;99183.78;5112709;28;20219;-76
2021/10/05 00:31:09;;;;;;;7.60;6.30;;;;;;;12.47;100.00;99177.31;5117706;28;20194;-76
2021/10/05 00:33:36;;;;;;;6.18;5.43;;;;;;;12.44;100.00;99177.53;5118171;28;20198;-76
2021/10/05 00:36:03;;;;;;;7.40;6.60;;;;;;;12.36;100.00;99177.22;5117323;28;20251;-76
2021/10/05 00:38:29;;;;;;;7.38;6.07;;;;;;;12.31;100.00;99167.59;5112908;28;20189;-77
2021/10/05 00:40:56;;;;;;;7.45;6.75;;;;;;;12.09;100.00;99167.41;5120785;28;20230;-76
2021/10/05 00:43:23;;;;;;;8.40;7.03;;;;;;;12.23;100.00;99159.22;5126495;28;20255;-77
2021/10/05 00:45:50;;;;;;;7.30;6.20;;;;;;;12.50;100.00;99155.47;5114833;28;20599;-77
2021/10/05 00:48:18;;;;;;;7.00;5.82;;;;;;;12.52;100.00;99150.81;5118179;28;20197;-77
2021/10/05 00:50:45;;;;;;;6.30;5.70;;;;;;;12.42;100.00;99149.78;5118809;28;20187;-77
2021/10/05 00:53:12;;;;;;;8.43;6.55;;;;;;;12.24;100.00;99157.38;5104911;28;20248;-76
2021/10/05 00:55:39;;;;;;;6.95;5.88;;;;;;;12.13;100.00;99158.13;5118440;28;20204;-77
2021/10/05 00:58:06;;;;;;;8.32;6.65;;;;;;;12.30;100.00;99149.69;5117083;28;20279;-76
2021/10/05 01:00:33;;;;;;;6.93;6.22;;;;;;;12.23;100.00;99148.41;5118847;28;20274;-76
2021/10/05 01:03:00;;;;;;;7.22;6.53;;;;;;;12.12;100.00;99145.63;5109870;28;20227;-76
2021/10/05 01:05:28;;;;;;;6.57;5.97;;;;;;;12.18;100.00;99147.00;5118108;28;20190;-76
2021/10/05 01:07:54;;;;;;;7.82;6.68;;;;;;;12.20;100.00;99134.28;5118171;28;20180;-76
2021/10/05 01:10:21;;;;;;;7.50;6.30;;;;;;;12.23;100.00;99134.94;5117719;28;20197;-76
2021/10/05 01:12:49;;;;;;;6.45;5.50;;;;;;;12.04;100.00;99132.66;5118507;28;20200;-76
2021/10/05 01:15:16;;;;;;;8.25;6.28;;;;;;;12.02;100.00;99114.88;5118550;28;20534;-76
2021/10/05 01:17:42;;;;;;;6.95;5.82;;;;;;;11.87;100.00;99111.38;5113550;28;20260;-76
2021/10/05 01:20:11;;;;;;;6.63;6.03;;;;;;;11.85;100.00;99116.91;5118916;28;20554;-76
2021/10/05 01:22:39;;;;;;;6.82;6.03;;;;;;;12.14;100.00;99111.28;5119285;28;20183;-76
2021/10/05 01:25:07;;;;;;;7.65;6.95;;;;;;;12.14;100.00;99119.38;5118785;28;20183;-76
2021/10/05 01:27:41;;;;;;;8.00;7.30;;;;;;;12.41;100.00;99118.34;5119384;28;20187;-76
2021/10/05 01:30:09;;;;;;;8.23;7.00;;;;;;;12.56;100.00;99111.81;5119571;28;20193;-76
2021/10/05 01:32:36;;;;;;;7.75;6.95;;;;;;;12.54;100.00;99116.47;5118661;28;20191;-76
2021/10/05 01:35:03;;;;;;;7.22;6.53;;;;;;;12.36;100.00;99098.94;5119610;28;20284;-76
2021/10/05 01:37:30;;;;;;;8.60;7.45;;;;;;;12.22;100.00;99092.69;5118862;28;20183;-76
2021/10/05 01:39:58;;;;;;;7.95;7.15;;;;;;;12.08;100.00;99091.00;5118994;28;20199;-76
2021/10/05 01:42:24;;;;;;;8.05;7.25;;;;;;;12.05;100.00;99093.03;5117080;28;20192;-76
2021/10/05 01:44:51;;;;;;;8.02;7.03;;;;;;;12.14;100.00;99091.53;5109873;28;20287;-76
2021/10/05 01:47:18;;;;;;;7.32;6.60;;;;;;;12.16;100.00;99089.56;5115947;28;20191;-76
2021/10/05 01:49:45;;;;;;;8.77;7.43;;;;;;;12.02;100.00;99085.19;5115505;28;20538;-76
2021/10/05 01:52:11;;;;;;;7.10;6.50;;;;;;;12.17;100.00;99072.44;5115491;28;20600;-76
2021/10/05 01:54:38;;;;;;;7.18;6.47;;;;;;;12.16;100.00;99076.09;5116776;28;20195;-76
2021/10/05 01:57:06;;;;;;;8.07;7.28;;;;;;;12.18;100.00;99072.28;5118180;28;20267;-76
2021/10/05 01:59:33;;;;;;;8.05;7.25;;;;;;;12.16;100.00;99074.25;5117130;28;20538;-76
2021/10/05 02:02:00;;;;;;;8.57;7.70;;;;;;;12.13;100.00;99055.59;5116835;28;20202;-76
2021/10/05 02:04:26;;;;;;;10.52;7.95;;;;;;;12.11;100.00;99057.53;5116845;28;20551;-76
2021/10/05 02:06:53;;;;;;;7.93;7.13;;;;;;;12.26;100.00;99056.41;5119506;28;20179;-77
2021/10/05 02:09:20;;;;;;;12.40;7.35;;;;;;;12.14;100.00;99051.91;5126536;28;20194;-77
2021/10/05 02:11:47;;;;;;;7.47;6.75;;;;;;;12.13;100.00;99050.19;5127971;28;20187;-77
2021/10/05 02:14:15;;;;;;;9.00;7.70;;;;;;;12.14;100.00;99051.91;5129776;28;20230;-76
2021/10/05 02:16:42;;;;;;;8.00;7.20;;;;;;;12.28;100.00;99053.59;5128630;28;20210;-76
2021/10/05 02:19:09;;;;;;;9.45;7.15;;;;;;;12.32;100.00;99055.09;5126867;28;20219;-77
2021/10/05 02:21:36;;;;;;;7.18;6.47;;;;;;;12.30;100.00;99057.03;5117400;28;20640;-76
2021/10/05 02:26:49;;;;;;;7.88;7.13;;;;;;;12.31;100.00;99058.78;5122694;28;20213;-77
2021/10/05 02:29:17;;;;;;;6.88;6.28;;;;;;;12.37;100.00;99046.63;5119236;28;20223;-76
2021/10/05 02:31:44;;;;;;;8.40;6.65;;;;;;;12.38;100.00;99038.44;5117743;28;20252;-76
2021/10/05 02:34:12;;;;;;;7.25;6.60;;;;;;;12.42;100.00;99033.69;5118218;28;20232;-76
2021/10/05 02:36:40;;;;;;;8.63;7.05;;;;;;;12.09;100.00;99029.78;5118291;28;20227;-76
2021/10/05 02:39:07;;;;;;;9.40;7.13;;;;;;;12.12;100.00;99026.88;5116624;28;20236;-76
2021/10/05 02:41:34;;;;;;;8.20;6.20;;;;;;;12.20;100.00;99029.00;5108618;28;20523;-76
2021/10/05 02:44:01;;;;;;;7.53;6.82;;;;;;;12.01;100.00;99029.50;5116673;28;20676;-76
2021/10/05 02:46:29;;;;;;;7.25;6.53;;;;;;;11.90;100.00;99006.00;5115471;28;20275;-75
2021/10/05 02:48:56;;;;;;;7.45;6.75;;;;;;;12.02;100.00;99005.09;5119343;28;20187;-76
2021/10/05 02:51:22;;;;;;;7.15;6.05;;;;;;;12.10;100.00;99009.94;5118109;28;20278;-76
2021/10/05 02:53:49;;;;;;;7.18;6.45;;;;;;;12.19;100.00;99001.16;5119055;28;20271;-77
2021/10/05 02:56:16;;;;;;;9.00;6.20;;;;;;;12.43;100.00;99003.00;5120409;28;20238;-76
2021/10/05 02:58:43;;;;;;;8.30;7.50;;;;;;;12.43;100.00;99006.56;5116600;28;20202;-76
2021/10/05 03:01:09;;;;;;;7.72;6.93;;;;;;;12.52;100.00;99005.00;5118063;28;20198;-76
2021/10/05 03:03:37;;;;;;;8.48;7.40;;;;;;;12.60;100.00;98993.63;5118298;28;20194;-76
2021/10/05 03:06:04;;;;;;;8.23;7.35;;;;;;;12.65;100.00;98995.00;5114238;28;20195;-76
2021/10/05 03:08:30;;;;;;;11.15;8.15;;;;;;;12.72;100.00;98993.53;5118683;28;20187;-77
2021/10/05 03:10:58;;;;;;;7.93;7.13;;;;;;;12.65;100.00;98994.13;5116045;28;20206;-75
2021/10/05 03:13:27;;;;;;;8.55;7.68;;;;;;;12.59;100.00;98975.69;5110916;28;20225;-77
2021/10/05 03:15:54;;;;;;;9.23;7.88;;;;;;;12.56;100.00;98984.91;5117765;28;20206;-76
2021/10/05 03:18:20;;;;;;;13.85;12.40;;;;;;;12.57;100.00;98974.94;5118370;28;20597;-75
2021/10/05 03:20:49;;;;;;;8.60;7.13;;;;;;;12.57;100.00;98961.44;5117227;28;20223;-76
2021/10/05 03:23:15;;;;;;;8.57;7.60;;;;;;;12.58;100.00;98963.19;5114148;28;20183;-76
2021/10/05 03:25:42;;;;;;;10.07;8.23;;;;;;;12.63;100.00;98961.84;5115162;28;20188;-76
2021/10/05 03:28:09;;;;;;;10.70;8.85;;;;;;;12.57;100.00;98964.16;5112460;28;20224;-75
2021/10/05 03:30:35;;;;;;;11.48;9.60;;;;;;;12.56;100.00;98962.44;5112849;28;20274;-75
2021/10/05 03:33:02;;;;;;;11.45;10.32;;;;;;;12.61;100.00;98969.19;5114996;28;20199;-76
2021/10/05 03:35:29;;;;;;;12.02;10.45;;;;;;;12.68;100.00;98967.72;5116330;28;20203;-76
2021/10/05 03:37:57;;;;;;;11.40;9.98;;;;;;;12.72;100.00;98965.69;5115651;28;20202;-76
2021/10/05 03:40:24;;;;;;;12.98;11.05;;;;;;;12.72;100.00;98954.88;5115811;28;20542;-76
2021/10/05 03:42:50;;;;;;;11.05;9.85;;;;;;;12.75;100.00;98945.66;5116749;28;20287;-76
2021/10/05 03:45:17;;;;;;;12.95;11.10;;;;;;;12.83;100.00;98944.09;5117128;28;20195;-76
2021/10/05 03:47:44;;;;;;;12.27;10.18;;;;;;;12.82;100.00;98946.91;5116710;28;20188;-77
2021/10/05 03:50:11;;;;;;;18.92;13.82;;;;;;;12.88;100.00;98944.59;5108524;28;20300;-76
2021/10/05 03:52:38;;;;;;;11.35;10.07;;;;;;;12.91;100.00;98941.66;5112071;28;20612;-75
2021/10/05 03:55:07;;;;;;;12.20;10.57;;;;;;;12.91;100.00;98938.06;5111588;28;20197;-75
2021/10/05 03:57:34;;;;;;;10.07;9.07;;;;;;;12.89;100.00;98940.06;5112786;28;20212;-75
2021/10/05 04:00:00;;;;;;;11.68;9.55;;;;;;;12.97;100.00;98934.91;5114440;28;20215;-76
2021/10/05 04:02:27;;;;;;;9.98;8.95;;;;;;;12.88;100.00;98938.31;5124339;28;20244;-77
2021/10/05 04:04:54;;;;;;;9.90;8.95;;;;;;;12.84;100.00;98932.28;5121021;28;20194;-75
2021/10/05 04:07:20;;;;;;;10.30;9.30;;;;;;;12.67;100.00;98941.72;5112002;28;20192;-75
2021/10/05 04:09:47;;;;;;;9.88;8.88;;;;;;;12.62;100.00;98938.53;5115078;28;20188;-76
2021/10/05 04:12:15;;;;;;;11.88;9.10;;;;;;;12.80;100.00;98932.66;5127183;28;20300;-76
2021/10/05 04:14:41;;;;;;;9.52;8.50;;;;;;;12.89;100.00;98931.97;5127985;28;20260;-77
2021/10/05 04:17:08;;;;;;;8.15;7.35;;;;;;;12.88;100.00;98925.69;5129333;28;20199;-77
2021/10/05 04:19:34;;;;;;;9.15;7.32;;;;;;;12.87;100.00;98915.88;5124620;28;20232;-77
2021/10/05 04:22:01;;;;;;;8.93;7.65;;;;;;;12.78;100.00;98910.34;5132194;28;20199;-77
2021/10/05 04:24:28;;;;;;;13.15;8.02;;;;;;;12.75;100.00;98915.94;5132776;28;20324;-77
2021/10/05 04:26:54;;;;;;;8.07;7.25;;;;;;;12.76;100.00;98912.28;5131903;28;20274;-77
2021/10/05 04:29:22;;;;;;;11.27;8.85;;;;;;;12.86;100.00;98910.56;5130951;28;20215;-77
2021/10/05 04:31:49;;;;;;;9.45;7.88;;;;;;;12.89;100.00;98903.09;5131442;28;20202;-77
2021/10/05 04:34:17;;;;;;;9.02;8.00;;;;;;;12.80;100.00;98913.75;5131597;28;20216;-76
2021/10/05 04:36:43;;;;;;;9.23;8.27;;;;;;;12.77;100.00;98908.59;5122746;28;20306;-76
2021/10/05 04:39:10;;;;;;;12.10;8.65;;;;;;;12.79;100.00;98914.75;5117723;28;20195;-76
2021/10/05 04:41:37;;;;;;;10.60;9.52;;;;;;;12.85;100.00;98906.16;5121991;28;20210;-76
2021/10/05 04:44:04;;;;;;;11.45;8.60;;;;;;;12.87;100.00;98904.19;5131777;28;20712;-76
2021/10/05 04:46:32;;;;;;;10.90;9.20;;;;;;;12.89;100.00;98899.53;5130148;28;20261;-75
2021/10/05 04:48:58;;;;;;;11.27;9.50;;;;;;;12.94;100.00;98900.03;5130603;28;20247;-76
2021/10/05 04:51:25;;;;;;;13.32;11.07;;;;;;;12.75;100.00;98895.19;5130684;28;20192;-77
2021/10/05 04:53:52;;;;;;;14.65;11.57;;;;;;;12.89;100.00;98897.69;5129694;28;20216;-77
2021/10/05 04:56:18;;;;;;;16.40;12.13;;;;;;;13.03;100.00;98899.31;5130652;28;20211;-77
2021/10/05 04:58:45;;;;;;;14.93;11.75;;;;;;;13.14;100.00;98885.78;5128409;28;20248;-77
2021/10/05 05:01:11;;;;;;;17.33;12.88;;;;;;;13.20;100.00;98883.56;5129165;28;20191;-77
2021/10/05 05:03:39;;;;;;;15.60;11.60;;;;;;;13.11;100.00;98875.25;5130008;28;20186;-77
2021/10/05 05:06:06;;;;;;;17.85;12.90;;;;;;;12.99;100.00;98870.78;5129753;28;20181;-77
2021/10/05 05:08:33;;;;;;;16.92;12.75;;;;;;;12.99;100.00;98873.50;5128281;28;20202;-77
2021/10/05 05:11:00;;;;;;;16.88;13.57;;;;;;;13.03;100.00;98874.13;5123973;28;20188;-77
2021/10/05 05:13:26;;;;;;;17.00;12.93;;;;;;;13.06;100.00;98884.69;5121038;28;20709;-76
2021/10/05 05:15:53;;;;;;;17.58;13.57;;;;;;;13.25;100.00;98881.34;5117594;28;20190;-76
2021/10/05 05:18:19;;;;;;;18.23;13.40;;;;;;;13.24;100.00;98868.84;5116532;28;20733;-76
2021/10/05 05:20:47;;;;;;;17.58;13.10;;;;;;;13.17;100.00;98867.63;5108186;28;20547;-77
2021/10/05 05:23:14;;;;;;;15.98;12.45;;;;;;;13.27;100.00;98873.97;5115706;28;20648;-76
2021/10/05 05:25:41;;;;;;;16.10;12.70;;;;;;;13.28;99.66;98873.91;5116819;28;20197;-76
2021/10/05 05:28:08;;;;;;;16.15;12.13;;;;;;;13.05;100.00;98878.41;5118454;28;20226;-77
2021/10/05 05:30:35;;;;;;;16.92;14.00;;;;;;;13.09;100.00;98869.09;5116843;28;20534;-76
2021/10/05 05:33:02;;;;;;;19.23;13.45;;;;;;;13.05;100.00;98859.50;5118939;28;20228;-75
2021/10/05 05:35:29;;;;;;;17.90;13.48;;;;;;;13.15;100.00;98871.28;5118130;28;20197;-77
2021/10/05 05:37:57;;;;;;;24.65;16.60;;;;;;;13.09;100.00;98869.09;5120509;28;20688;-76
2021/10/05 05:40:24;;;;;;;19.05;14.80;;;;;;;13.15;100.00;98860.47;5118744;28;20278;-76
2021/10/05 05:42:51;;;;;;;17.83;13.80;;;;;;;13.11;100.00;98859.03;5116911;28;20259;-77
2021/10/05 05:45:18;;;;;;;17.95;14.43;;;;;;;13.20;100.00;98864.66;5117773;28;20197;-77
2021/10/05 05:47:45;;;;;;;16.48;14.10;;;;;;;13.14;100.00;98856.06;5116807;28;20284;-77
2021/10/05 05:50:11;;;;;;;20.27;15.45;;;;;;;13.09;100.00;98844.78;5113645;28;20555;-76
2021/10/05 05:52:38;;;;;;;21.17;14.52;;;;;;;13.20;100.00;98849.28;5113843;28;20185;-76
2021/10/05 05:55:08;;;;;;;20.80;14.27;;;;;;;13.18;100.00;98853.94;5113720;28;20655;-76
2021/10/05 05:57:35;;;;;;;19.83;14.27;;;;;;;13.09;100.00;98836.66;5097057;28;20679;-77
2021/10/05 06:00:02;;;;;;;15.25;13.52;;;;;;;13.04;100.00;98838.00;5073902;28;20715;-76
2021/10/05 06:02:28;;;;;;;14.77;12.32;;;;;;;13.03;100.00;98836.28;5071650;28;20204;-77
2021/10/05 06:04:55;;;;;;;21.13;13.82;;;;;;;13.14;99.69;98844.41;5071547;28;20620;-75
2021/10/05 06:07:22;;;;;;;15.15;12.77;;;;;;;13.06;100.00;98841.44;5071708;28;20196;-77
2021/10/05 06:09:48;;;;;;;15.38;12.38;;;;;;;13.03;100.00;98839.00;5073513;28;20697;-77
2021/10/05 06:12:19;;;;;;;13.20;11.38;;;;;;;13.06;100.00;98839.59;5072763;28;20289;-77
2021/10/05 06:14:46;;;;;;;17.90;12.60;;;;;;;12.96;100.00;98835.94;5069896;28;20491;-76
2021/10/05 06:17:13;;;;;;;14.75;11.70;;;;;;;13.06;100.00;98825.22;5069763;28;20210;-76
2021/10/05 06:19:40;;;;;;;16.20;12.15;;;;;;;13.04;100.00;98827.19;5070878;28;20198;-77
2021/10/05 06:22:06;;;;;;;15.15;11.70;;;;;;;13.00;100.00;98832.00;5071146;28;20190;-75
2021/10/05 06:24:33;;;;;;;15.00;11.38;;;;;;;13.02;99.82;98832.72;5071747;28;20243;-76
2021/10/05 06:27:00;;;;;;;12.82;10.43;;;;;;;13.14;99.03;98828.19;5071493;28;20188;-77
2021/10/05 06:29:28;;;;;;;11.82;10.43;;;;;;;13.14;98.95;98834.44;5071210;28;20224;-76
2021/10/05 06:31:54;;;;;;;15.68;10.50;;;;;;;13.23;98.58;98837.34;5071957;28;20212;-75
2021/10/05 06:34:21;;;;;;;12.65;9.68;;;;;;;13.28;97.97;98832.50;5071201;28;20281;-77
2021/10/05 06:36:47;;;;;;;11.32;9.35;;;;;;;13.32;96.35;98829.41;5071594;28;20702;-77
2021/10/05 06:39:14;;;;;;;12.65;9.18;;;;;;;13.34;95.45;98819.34;5071452;28;20559;-76
2021/10/05 06:41:41;;;;;;;9.48;8.43;;;;;;;13.31;95.81;98826.81;5071480;28;20543;-76
2021/10/05 06:44:08;;;;;;;11.90;9.02;;;;;;;13.46;94.40;98814.75;5070159;28;20189;-75
2021/10/05 06:46:38;;;;;;;13.23;10.07;;;;;;;13.44;94.35;98811.31;5070611;28;20192;-76
2021/10/05 06:49:04;;;;;;;15.05;9.65;;;;;;;13.34;95.58;98808.53;5071269;28;20196;-76
2021/10/05 06:51:31;;;;;;;15.05;9.05;;;;;;;13.43;95.53;98809.63;5070722;28;20199;-76
2021/10/05 06:53:57;;;;;;;11.98;9.20;;;;;;;13.51;94.74;98804.41;5069589;28;20292;-77
2021/10/05 06:56:24;;;;;;;10.80;8.32;;;;;;;13.68;93.69;98810.25;5070213;28;20197;-76
2021/10/05 06:58:51;;;;;;;10.80;8.57;;;;;;;13.60;93.99;98807.34;5069383;28;20190;-76
2021/10/05 07:01:18;;;;;;;11.63;9.35;;;;;;;13.49;94.23;98809.09;5070548;28;20208;-76
2021/10/05 07:03:46;;;;;;;13.02;9.60;;;;;;;13.39;96.49;98810.00;5070161;28;20191;-77
2021/10/05 07:06:12;;;;;;;11.55;9.60;;;;;;;13.59;94.83;98801.09;5070770;28;20533;-76
2021/10/05 07:08:41;;;;;;;13.63;11.00;;;;;;;13.62;93.65;98802.69;5069753;28;20633;-76
2021/10/05 07:11:08;;;;;;;11.35;9.30;;;;;;;13.61;93.40;98801.78;5071226;28;20227;-75
2021/10/05 07:13:34;;;;;;;10.75;8.02;;;;;;;13.64;92.00;98811.53;5071778;28;20209;-76
2021/10/05 07:16:01;;;;;;;15.38;6.97;;;;;;;13.55;91.86;98814.00;5070980;28;20549;-77
2021/10/05 07:18:32;;;;;;;7.40;6.30;;;;;;;13.57;91.84;98824.69;5071749;28;20686;-77
2021/10/05 07:21:01;;;;;;;9.60;7.65;;;;;;;13.62;90.81;98813.50;5072474;28;20277;-77
2021/10/05 07:23:27;;;;;;;10.95;7.30;;;;;;;13.59;91.23;98808.31;5071101;28;20304;-76
2021/10/05 07:25:54;;;;;;;8.40;6.25;;;;;;;13.47;91.69;98821.88;5071588;28;20605;-75
2021/10/05 07:28:21;;;;;;;8.85;6.60;;;;;;;13.57;91.12;98811.16;5070638;28;20326;-76
2021/10/05 07:30:47;;;;;;;8.55;5.80;;;;;;;13.51;90.97;98812.53;5070589;28;20514;-76
2021/10/05 07:33:15;;;;;;;17.33;7.28;;;;;;;13.76;89.35;98816.75;5070431;28;20285;-76
2021/10/05 07:35:42;;;;;;;7.15;6.45;;;;;;;13.57;89.73;98819.28;5070807;28;20198;-76
2021/10/05 07:38:10;;;;;;;7.20;5.47;;;;;;;13.57;89.37;98813.88;5070620;28;20293;-76
2021/10/05 07:40:37;;;;;;;7.70;5.95;;;;;;;13.62;89.77;98818.91;5071852;28;20207;-77
2021/10/05 07:43:03;;;;;;;7.00;5.72;;;;;;;13.67;89.46;98811.25;5071202;28;20218;-77
2021/10/05 07:45:31;;;;;;;5.80;5.30;;;;;;;13.52;90.31;98808.84;5074096;28;20675;-78
2021/10/05 07:47:58;;;;;;;5.75;4.82;;;;;;;13.40;90.55;98815.25;5075759;28;20197;-77
2021/10/05 07:50:25;;;;;;;5.72;5.15;;;;;;;13.41;91.43;98808.00;5076428;28;20665;-77
2021/10/05 07:52:52;;;;;;;6.15;5.53;;;;;;;13.50;91.31;98801.81;5073905;28;20281;-77
2021/10/05 07:55:20;;;;;;;6.72;4.97;;;;;;;13.71;89.50;98794.63;5075581;28;20282;-76
2021/10/05 07:57:47;;;;;;;6.15;5.55;;;;;;;13.74;89.09;98780.00;5074701;28;20213;-77
2021/10/05 08:00:15;;;;;;;7.05;6.32;;;;;;;13.88;89.13;98770.69;5074868;28;20199;-76
2021/10/05 08:02:44;;;;;;;5.85;5.28;;;;;;;14.06;87.28;98777.25;5074154;28;20191;-76
2021/10/05 08:05:11;;;;;;;7.28;4.97;;;;;;;14.18;86.24;98762.69;5075136;28;20216;-76
2021/10/05 08:07:37;;;;;;;9.25;6.38;;;;;;;14.33;85.83;98765.88;5075443;28;20642;-77
2021/10/05 08:10:05;;;;;;;6.60;5.90;;;;;;;14.23;86.39;98767.69;5075250;28;20239;-76
2021/10/05 08:12:33;;;;;;;7.20;6.03;;;;;;;14.45;84.59;98768.53;5074605;28;20198;-76
2021/10/05 08:14:59;;;;;;;5.03;3.88;;;;;;;14.47;83.44;98771.94;5074685;28;20193;-76
2021/10/05 08:17:26;;;;;;;7.65;5.63;;;;;;;14.77;81.24;98784.72;5074090;28;20223;-77
2021/10/05 08:19:52;;;;;;;3.80;3.40;;;;;;;14.59;81.06;98777.19;5074854;28;20639;-76
2021/10/05 08:22:20;;;;;;;5.90;4.03;;;;;;;14.61;80.35;98782.50;5075293;28;20188;-77
2021/10/05 08:24:46;;;;;;;4.25;3.40;;;;;;;14.56;79.42;98772.06;5075926;28;20290;-77
2021/10/05 08:27:13;;;;;;;4.50;3.40;;;;;;;14.58;79.78;98771.91;5074749;28;20664;-78
2021/10/05 08:29:44;;;;;;;3.42;3.13;;;;;;;14.42;79.71;98763.38;5073685;28;20230;-77
2021/10/05 08:32:11;;;;;;;3.70;3.40;;;;;;;14.35;80.66;98763.06;5074598;28;20253;-78
2021/10/05 08:34:39;;;;;;;7.22;4.30;;;;;;;14.42;80.41;98753.41;5074396;28;20192;-78
2021/10/05 08:37:06;;;;;;;4.50;3.70;;;;;;;14.34;80.76;98754.09;5073723;28;20250;-78
2021/10/05 08:39:33;;;;;;;3.60;3.30;;;;;;;14.43;80.27;98757.00;5074011;28;20207;-76
2021/10/05 08:41:59;;;;;;;4.55;3.00;;;;;;;14.57;79.01;98760.22;5073928;28;20302;-78
2021/10/05 08:44:26;;;;;;;9.93;6.60;;;;;;;14.76;78.40;98764.00;5074079;28;20190;-76
2021/10/05 08:46:55;;;;;;;5.28;4.30;;;;;;;14.84;77.82;98763.34;5074636;28;20716;-77
2021/10/05 08:49:23;;;;;;;6.43;3.53;;;;;;;15.05;77.04;98768.69;5074304;28;20188;-75
2021/10/05 08:51:50;;;;;;;3.90;3.47;;;;;;;15.28;75.46;98762.03;5073100;28;20199;-77
2021/10/05 08:54:17;;;;;;;3.42;3.10;;;;;;;15.39;75.09;98758.34;5074044;28;20271;-77
2021/10/05 08:56:45;;;;;;;3.67;2.60;;;;;;;15.40;74.64;98765.50;5073976;28;20214;-76
2021/10/05 08:59:13;;;;;;;6.28;3.47;;;;;;;15.42;74.49;98753.50;5073722;28;20192;-79
2021/10/05 09:01:41;;;;;;;6.28;2.72;;;;;;;15.55;74.06;98753.22;5073877;28;20191;-77
2021/10/05 09:04:09;;;;;;;3.65;2.60;;;;;;;15.45;73.84;98756.94;5074280;28;20206;-77
2021/10/05 09:06:37;;;;;;;5.72;2.90;;;;;;;15.50;73.78;98749.25;5074212;28;20199;-77
2021/10/05 09:09:05;;;;;;;4.18;3.53;;;;;;;15.45;73.22;98746.94;5073620;28;20195;-78
2021/10/05 09:11:39;;;;;;;6.38;3.33;;;;;;;15.34;73.76;98733.50;5073250;28;20193;-77
2021/10/05 09:14:06;;;;;;;3.75;3.00;;;;;;;15.30;74.27;98737.50;5073611;28;20183;-78
2021/10/05 09:16:34;;;;;;;3.33;3.03;;;;;;;15.21;75.18;98737.31;5073203;28;20702;-78
2021/10/05 09:19:03;;;;;;;4.03;2.78;;;;;;;15.21;74.98;98731.06;5073246;28;20215;-77
2021/10/05 09:21:34;;;;;;;3.83;3.00;;;;;;;15.34;74.71;98725.38;5072762;28;20651;-76
2021/10/05 09:24:03;;;;;;;3.40;3.05;;;;;;;15.49;73.90;98729.41;5073137;28;20194;-76
2021/10/05 09:26:39;;;;;;;4.10;3.33;;;;;;;15.68;73.54;98730.41;5073331;28;20187;-77
2021/10/05 09:29:14;;;;;;;3.92;3.20;;;;;;;15.96;71.97;98718.69;5072430;28;20227;-77
2021/10/05 09:31:50;;;;;;;4.97;3.72;;;;;;;16.19;70.84;98713.81;5073435;28;20188;-77
2021/10/05 09:34:17;;;;;;;4.53;3.40;;;;;;;16.40;69.90;98708.16;5072817;28;20295;-76
2021/10/05 09:36:46;;;;;;;5.72;3.33;;;;;;;16.50;69.03;98715.41;5073358;28;20192;-76
2021/10/05 09:39:13;;;;;;;4.78;3.33;;;;;;;16.91;67.46;98721.44;5072689;28;20300;-78
2021/10/05 09:41:40;;;;;;;3.53;2.55;;;;;;;17.06;66.20;98717.19;5072468;28;20556;-77
2021/10/05 09:44:09;;;;;;;7.55;4.20;;;;;;;17.08;66.49;98710.59;5072487;28;20199;-76
2021/10/05 09:46:36;;;;;;;4.60;2.45;;;;;;;17.11;65.40;98704.00;5072195;28;20208;-77
2021/10/05 09:49:06;;;;;;;2.72;2.22;;;;;;;17.24;65.29;98703.63;5071762;28;20191;-75
2021/10/05 09:51:34;;;;;;;5.05;3.40;;;;;;;17.35;64.96;98699.84;5072192;28;20250;-77
2021/10/05 09:54:02;;;;;;;3.28;2.63;;;;;;;17.55;63.42;98706.84;5072779;28;20200;-78
2021/10/05 09:56:30;;;;;;;4.05;2.65;;;;;;;17.64;63.00;98697.75;5072057;28;20203;-78
2021/10/05 09:58:58;;;;;;;5.28;3.40;;;;;;;17.55;63.83;98695.97;5071819;28;20273;-77
2021/10/05 10:01:27;;;;;;;3.20;2.75;;;;;;;17.74;63.18;98694.94;5072732;28;20993;-76
2021/10/05 10:03:54;;;;;;;3.67;2.35;;;;;;;17.77;63.21;98693.75;5071308;28;20272;-77
2021/10/05 10:06:21;;;;;;;7.75;3.25;;;;;;;17.72;63.04;98697.81;5071848;28;20184;-76
2021/10/05 10:08:49;;;;;;;4.22;2.50;;;;;;;17.63;63.42;98698.75;5070882;28;20208;-76
2021/10/05 10:11:17;;;;;;;2.72;2.05;;;;;;;17.63;62.69;98693.31;5070843;28;20195;-77
2021/10/05 10:13:45;;;;;;;2.63;2.30;;;;;;;17.52;63.41;98693.53;5070936;28;20200;-76
2021/10/05 10:16:12;;;;;;;2.33;2.10;;;;;;;17.71;62.69;98681.66;5070007;28;20192;-76
2021/10/05 10:18:50;;;;;;;24.95;2.45;;;;;;;17.74;63.07;98678.59;5070075;28;20201;-77
2021/10/05 10:21:25;;;;;;;2.75;2.53;;;;;;;17.91;63.24;98680.47;5071064;28;20627;-76
2021/10/05 10:24:07;;;;;;;3.58;2.40;;;;;;;18.22;62.18;98676.44;5070617;28;20231;-78
2021/10/05 10:26:37;;;;;;;3.03;2.15;;;;;;;18.22;61.35;98670.97;5069785;28;20181;-77
2021/10/05 10:29:04;;;;;;;3.00;2.70;;;;;;;18.21;61.66;98672.84;5069257;28;20230;-77
2021/10/05 10:31:34;;;;;;;4.93;2.30;;;;;;;18.30;61.52;98674.63;5071837;28;20194;-77
2021/10/05 10:34:00;;;;;;;3.20;1.80;;;;;;;17.53;63.44;98673.50;5071504;28;20189;-77
2021/10/05 10:36:31;;;;;;;2.50;2.00;;;;;;;17.70;63.08;98669.91;5071054;28;20200;-76
2021/10/05 10:39:07;;;;;;;2.60;2.20;;;;;;;17.82;63.03;98672.38;5071289;28;20253;-78
2021/10/05 10:41:35;;;;;;;7.90;5.07;;;;;;;18.12;62.12;98676.53;5071533;28;20185;-77
2021/10/05 10:44:04;;;;;;;3.47;2.38;;;;;;;18.06;61.98;98669.84;5071723;28;20727;-77
2021/10/05 10:46:34;;;;;;;6.00;2.28;;;;;;;18.61;59.78;98670.50;5071427;28;20193;-77
2021/10/05 10:49:02;;;;;;;5.80;2.83;;;;;;;19.27;58.12;98669.75;5071524;28;20200;-77
2021/10/05 10:51:34;;;;;;;2.28;1.65;;;;;;;19.71;56.22;98665.91;5071844;28;20249;-76
2021/10/05 10:54:12;;;;;;;4.45;1.63;;;;;;;19.94;55.31;98660.63;5071004;28;20192;-77
2021/10/05 10:56:41;;;;;;;3.67;2.40;;;;;;;19.69;55.47;98662.50;5070276;28;20278;-77
2021/10/05 10:59:10;;;;;;;4.15;1.95;;;;;;;18.88;58.23;98658.56;5071210;28;20311;-79
2021/10/05 11:01:42;;;;;;;4.65;2.47;;;;;;;18.91;59.01;98652.78;5072644;28;20210;-78
2021/10/05 11:04:11;;;;;;;5.13;2.53;;;;;;;19.05;57.61;98651.28;5070816;28;20217;-77
2021/10/05 11:06:42;;;;;;;4.80;2.00;;;;;;;18.95;57.62;98643.25;5071896;28;20189;-77
2021/10/05 11:09:08;;;;;;;4.70;2.10;;;;;;;18.64;59.01;98640.22;5072196;28;20233;-77
2021/10/05 11:11:38;;;;;;;2.40;1.77;;;;;;;18.69;59.24;98635.13;5071270;28;20545;-77
2021/10/05 11:14:08;;;;;;;4.55;2.40;;;;;;;18.87;58.13;98626.88;5072633;28;20635;-75
2021/10/05 11:16:38;;;;;;;2.92;2.30;;;;;;;19.00;57.73;98620.94;5072126;28;20619;-76
2021/10/05 11:19:10;;;;;;;2.55;2.00;;;;;;;18.98;57.21;98621.09;5072486;28;20217;-75
2021/10/05 11:21:38;;;;;;;4.63;2.50;;;;;;;19.00;57.46;98615.50;5073550;28;20279;-76
2021/10/05 11:24:06;;;;;;;4.32;2.00;;;;;;;18.95;56.96;98625.03;5071795;28;20264;-76
2021/10/05 11:26:35;;;;;;;6.70;1.90;;;;;;;18.46;58.05;98619.34;5072117;28;20244;-75
2021/10/05 11:29:02;;;;;;;2.60;1.67;;;;;;;18.61;57.60;98618.72;5071608;28;20316;-75